Time;durP1;ratioP1;P1;durP2;ratioP2;P2;SDS_P1;SDS_P2;PMS_P1;PMS_P2;Temp;Humidity;BMP_temperature;BMP_pressure;BME280_temperature;BME280_humidity;BME280_pressure;Samples;Min_cycle;Max_cycle;Signal;HPM_P1;HPM_P2
2023/03/15 00:00:20;;;;;;;10.82;2.70;;;2.40;99.90;;;;;;5079602;28;20205;-80
2023/03/15 00:02:47;;;;;;;7.75;2.40;;;2.40;99.90;;;;;;5080483;28;20580;-79
2023/03/15 00:05:14;;;;;;;7.60;2.78;;;2.40;99.90;;;;;;5080308;28;20306;-79
2023/03/15 00:07:41;;;;;;;6.55;1.83;;;2.40;92.90;;;;;;5080913;28;20203;-79
2023/03/15 00:10:09;;;;;;;16.90;2.45;;;2.40;69.00;;;;;;5081490;28;20206;-78
2023/03/15 00:12:36;;;;;;;2.55;1.30;;;2.40;41.20;;;;;;5081572;28;20187;-79
2023/03/15 00:15:05;;;;;;;4.95;2.38;;;2.40;23.10;;;;;;5081577;28;20371;-79
2023/03/15 00:17:33;;;;;;;7.35;2.60;;;2.40;97.90;;;;;;5082015;28;20228;-79
2023/03/15 00:20:00;;;;;;;12.13;2.22;;;2.40;54.80;;;;;;5081922;28;20272;-79
2023/03/15 00:22:27;;;;;;;7.53;2.55;;;2.40;99.90;;;;;;5081320;28;20677;-79
2023/03/15 00:24:54;;;;;;;3.75;2.10;;;2.40;99.90;;;;;;5080676;28;20223;-80
2023/03/15 00:27:20;;;;;;;7.20;2.50;;;2.40;64.00;;;;;;5079704;28;20203;-79
2023/03/15 00:29:47;;;;;;;5.85;2.35;;;2.40;2.50;;;;;;5079608;28;20202;-79
2023/03/15 00:32:16;;;;;;;6.43;2.50;;;2.40;26.80;;;;;;5079086;28;20266;-79
2023/03/15 00:34:48;;;;;;;5.13;2.00;;;2.40;2.00;;;;;;5079609;28;20614;-79
2023/03/15 00:37:15;;;;;;;14.35;2.25;;;2.40;1.00;;;;;;5079637;28;20194;-80
2023/03/15 00:39:44;;;;;;;9.13;1.92;;;2.40;57.40;;;;;;5079760;28;20298;-78
2023/03/15 00:42:14;;;;;;;5.22;1.85;;;2.40;99.90;;;;;;5077801;28;20585;-79
2023/03/15 00:44:41;;;;;;;6.68;1.70;;;2.30;46.40;;;;;;5079678;28;20314;-81
2023/03/15 00:47:08;;;;;;;7.00;2.28;;;2.30;74.80;;;;;;5080713;28;20213;-81
2023/03/15 00:49:36;;;;;;;3.28;1.85;;;2.30;75.30;;;;;;5081927;28;20208;-81
2023/03/15 00:52:04;;;;;;;3.90;2.00;;;2.40;99.90;;;;;;5082453;28;20209;-81
2023/03/15 00:54:32;;;;;;;5.22;2.03;;;2.40;61.70;;;;;;5081796;28;20654;-81
2023/03/15 00:56:59;;;;;;;7.05;2.42;;;2.40;99.90;;;;;;5080114;22;20234;-85
2023/03/15 00:59:27;;;;;;;5.25;2.05;;;2.50;99.90;;;;;;5058945;28;20204;-87
2023/03/15 01:01:55;;;;;;;8.23;2.20;;;2.40;99.90;;;;;;5062104;28;20209;-85
2023/03/15 01:04:21;;;;;;;4.80;1.95;;;2.40;99.90;;;;;;5063900;28;20353;-85
2023/03/15 01:06:50;;;;;;;9.13;2.78;;;1.80;99.90;;;;;;5064962;28;20224;-86
2023/03/15 01:09:16;;;;;;;5.50;2.33;;;2.30;99.90;;;;;;5065161;28;20231;-86
2023/03/15 01:11:43;;;;;;;2.85;1.85;;;2.30;99.90;;;;;;5060099;28;20242;-86
2023/03/15 01:14:10;;;;;;;9.95;2.40;;;3.10;99.90;;;;;;5058347;28;20234;-86
2023/03/15 01:16:37;;;;;;;6.60;1.77;;;2.30;99.90;;;;;;5057574;28;20231;-86
2023/03/15 01:19:04;;;;;;;10.23;2.35;;;2.20;99.90;;;;;;5058599;28;20249;-85
2023/03/15 01:21:31;;;;;;;6.70;2.20;;;2.50;99.90;;;;;;5063745;28;20577;-84
2023/03/15 01:23:59;;;;;;;3.42;1.75;;;2.20;99.90;;;;;;5076065;28;20270;-86
2023/03/15 01:26:26;;;;;;;6.63;1.70;;;2.20;99.90;;;;;;5061021;28;20216;-86
2023/03/15 01:28:53;;;;;;;8.13;2.40;;;2.10;99.90;;;;;;5070679;28;20238;-84
2023/03/15 01:31:23;;;;;;;5.80;2.63;;;2.10;99.90;;;;;;5073521;28;20214;-84
2023/03/15 01:33:50;;;;;;;11.85;2.75;;;2.10;99.90;;;;;;5067966;28;20210;-86
2023/03/15 01:36:17;;;;;;;1.75;1.48;;;2.10;99.90;;;;;;5058212;28;20351;-85
2023/03/15 01:38:45;;;;;;;3.28;2.05;;;2.00;99.90;;;;;;5057303;28;20214;-86
2023/03/15 01:41:14;;;;;;;5.68;1.90;;;2.10;99.90;;;;;;5058070;28;20301;-86
2023/03/15 01:43:45;;;;;;;7.78;2.58;;;2.10;99.90;;;;;;5058187;28;20214;-85
2023/03/15 01:46:23;;;;;;;4.22;1.80;;;2.30;99.90;;;;;;5057120;28;20274;-85
2023/03/15 01:48:54;;;;;;;3.47;2.13;;;2.20;99.90;;;;;;5057547;28;20191;-85
2023/03/15 01:51:23;;;;;;;5.20;1.90;;;2.10;99.90;;;;;;5057763;28;20675;-85
2023/03/15 01:53:55;;;;;;;2.53;2.22;;;2.00;99.90;;;;;;5056918;28;20214;-84
2023/03/15 01:56:24;;;;;;;13.20;2.33;;;2.00;99.90;;;;;;5059830;28;20227;-84
2023/03/15 01:58:53;;;;;;;2.80;1.65;;;2.00;99.90;;;;;;5058945;28;20294;-85
2023/03/15 02:01:20;;;;;;;3.20;1.83;;;2.00;99.90;;;;;;5057288;28;20291;-86
2023/03/15 02:03:53;;;;;;;4.15;1.80;;;2.00;99.90;;;;;;5057545;28;20250;-85
2023/03/15 02:06:22;;;;;;;5.82;1.95;;;2.00;99.90;;;;;;5067373;28;20228;-85
2023/03/15 02:08:53;;;;;;;9.05;2.00;;;2.00;99.90;;;;;;5066729;28;20211;-84
2023/03/15 02:11:24;;;;;;;10.85;2.60;;;1.90;99.90;;;;;;5067710;28;20219;-83
2023/03/15 02:13:52;;;;;;;5.93;2.60;;;1.90;1.00;;;;;;5071760;28;20281;-83
2023/03/15 02:16:20;;;;;;;3.42;1.90;;;1.90;99.90;;;;;;5076720;28;20247;-83
2023/03/15 02:18:47;;;;;;;8.63;2.08;;;2.00;99.90;;;;;;5076684;28;20270;-84
2023/03/15 02:21:25;;;;;;;3.95;2.25;;;1.80;99.90;;;;;;5077042;28;20206;-84
2023/03/15 02:24:03;;;;;;;4.10;1.83;;;1.90;99.90;;;;;;5068883;28;20198;-85
2023/03/15 02:26:40;;;;;;;4.10;1.90;;;1.80;99.90;;;;;;5059547;28;20223;-85
2023/03/15 02:29:09;;;;;;;6.25;2.22;;;1.70;99.90;;;;;;5058276;28;20194;-85
2023/03/15 02:31:36;;;;;;;7.25;2.00;;;1.60;99.90;;;;;;5057243;28;20203;-85
2023/03/15 02:34:05;;;;;;;21.58;2.50;;;1.50;99.90;;;;;;5057945;28;20288;-85
2023/03/15 02:36:33;;;;;;;10.32;2.67;;;1.60;1.00;;;;;;5057220;28;20232;-85
2023/03/15 02:39:00;;;;;;;4.32;1.90;;;1.10;1.00;;;;;;5056575;28;20204;-85
2023/03/15 02:41:33;;;;;;;6.13;2.50;;;1.30;1.00;;;;;;5056808;28;20297;-85
2023/03/15 02:44:04;;;;;;;3.28;2.65;;;1.30;1.00;;;;;;5056424;28;20194;-85
2023/03/15 02:46:32;;;;;;;3.85;1.95;;;1.00;1.00;;;;;;5056903;28;20221;-85
2023/03/15 02:49:00;;;;;;;10.00;2.83;;;1.30;1.00;;;;;;5056108;28;20298;-85
2023/03/15 02:51:29;;;;;;;2.40;2.00;;;1.40;1.00;;;;;;5056474;28;20235;-86
2023/03/15 02:53:56;;;;;;;3.75;1.90;;;1.30;1.00;;;;;;5057051;28;20207;-86
2023/03/15 02:56:23;;;;;;;14.10;2.42;;;1.30;1.00;;;;;;5056613;28;20706;-86
2023/03/15 02:58:50;;;;;;;4.32;2.28;;;1.30;1.00;;;;;;5056352;28;20216;-86
2023/03/15 03:01:18;;;;;;;11.70;2.25;;;1.30;1.00;;;;;;5056084;28;20199;-84
2023/03/15 03:03:47;;;;;;;7.45;2.30;;;1.30;1.00;;;;;;5057588;28;20268;-86
2023/03/15 03:06:18;;;;;;;6.35;1.95;;;1.20;1.00;;;;;;5056254;28;20223;-86
2023/03/15 03:08:46;;;;;;;4.97;2.45;;;1.20;1.00;;;;;;5056349;28;20282;-86
2023/03/15 03:11:13;;;;;;;6.60;1.92;;;1.30;1.00;;;;;;5056492;28;20207;-86
2023/03/15 03:13:40;;;;;;;8.40;1.52;;;1.40;1.00;;;;;;5062053;28;20271;-84
2023/03/15 03:16:07;;;;;;;3.85;2.08;;;1.30;1.00;;;;;;5057223;28;20223;-86
2023/03/15 03:18:35;;;;;;;3.33;1.90;;;1.30;1.00;;;;;;5076103;28;20227;-86
2023/03/15 03:21:06;;;;;;;5.20;1.90;;;1.40;1.00;;;;;;5066934;28;20200;-86
2023/03/15 03:23:35;;;;;;;10.23;2.40;;;1.30;1.00;;;;;;5062910;28;20278;-87
2023/03/15 03:26:02;;;;;;;7.88;2.05;;;1.40;1.00;;;;;;5062024;28;20261;-87
2023/03/15 03:28:32;;;;;;;6.38;1.85;;;1.30;1.00;;;;;;5064537;28;20217;-87
2023/03/15 03:30:59;;;;;;;6.05;2.25;;;1.30;1.00;;;;;;5067688;28;20264;-86
2023/03/15 03:33:26;;;;;;;11.20;2.88;;;1.30;1.00;;;;;;5071028;28;20223;-85
2023/03/15 03:35:54;;;;;;;3.25;2.33;;;1.30;1.00;;;;;;5067821;28;20291;-86
2023/03/15 03:38:22;;;;;;;4.88;1.98;;;1.30;1.00;;;;;;5062441;28;20211;-85
2023/03/15 03:40:49;;;;;;;2.95;2.53;;;1.30;1.00;;;;;;5060978;28;20213;-85
2023/03/15 03:43:15;;;;;;;6.10;2.38;;;1.30;1.00;;;;;;5059741;28;20211;-86
2023/03/15 03:45:42;;;;;;;6.30;2.30;;;1.40;1.00;;;;;;5058996;28;20616;-86
2023/03/15 03:48:09;;;;;;;8.07;2.65;;;1.40;1.00;;;;;;5059682;28;20298;-85
2023/03/15 03:50:36;;;;;;;4.38;2.22;;;1.40;1.00;;;;;;5059939;28;20293;-84
2023/03/15 03:53:03;;;;;;;7.63;2.50;;;1.00;1.00;;;;;;5059219;28;20217;-85
2023/03/15 03:55:32;;;;;;;2.78;1.38;;;1.40;1.00;;;;;;5059159;28;20314;-85
2023/03/15 03:57:59;;;;;;;3.90;1.90;;;1.30;1.00;;;;;;5059875;28;20608;-85
2023/03/15 04:00:26;;;;;;;10.15;2.38;;;1.40;1.00;;;;;;5060005;28;20203;-86
2023/03/15 04:02:53;;;;;;;9.57;2.42;;;1.40;1.00;;;;;;5059980;28;20278;-84
2023/03/15 04:05:20;;;;;;;8.43;2.30;;;1.30;1.00;;;;;;5060524;28;20207;-84
2023/03/15 04:07:47;;;;;;;10.68;3.47;;;1.20;1.00;;;;;;5062172;28;20210;-84
2023/03/15 04:10:14;;;;;;;10.15;2.50;;;1.20;1.00;;;;;;5061448;28;20237;-86
2023/03/15 04:12:43;;;;;;;5.82;2.03;;;1.30;1.00;;;;;;5062140;28;20292;-87
2023/03/15 04:15:11;;;;;;;6.65;2.05;;;1.20;1.00;;;;;;5060714;28;20227;-85
2023/03/15 04:17:38;;;;;;;9.00;1.88;;;1.20;1.00;;;;;;5060476;28;20281;-85
2023/03/15 04:20:09;;;;;;;13.70;2.65;;;1.20;1.00;;;;;;5059559;28;20291;-85
2023/03/15 04:22:36;;;;;;;1.77;1.58;;;1.10;1.00;;;;;;5060379;28;20273;-85
2023/03/15 04:25:03;;;;;;;5.30;2.85;;;1.10;1.00;;;;;;5062388;28;20746;-85
2023/03/15 04:27:30;;;;;;;4.68;2.08;;;1.10;1.00;;;;;;5060643;28;20251;-86
2023/03/15 04:29:58;;;;;;;5.93;2.67;;;1.00;1.00;;;;;;5061004;28;20206;-85
2023/03/15 04:32:25;;;;;;;2.63;1.88;;;1.00;1.00;;;;;;5060220;28;20210;-86
2023/03/15 04:34:54;;;;;;;3.50;2.08;;;0.80;9.70;;;;;;5060705;28;20239;-85
2023/03/15 04:37:21;;;;;;;6.93;2.53;;;0.90;1.00;;;;;;5060544;28;20258;-86
2023/03/15 04:39:48;;;;;;;6.05;3.13;;;1.00;1.00;;;;;;5060329;28;20211;-84
2023/03/15 04:42:15;;;;;;;13.85;3.95;;;1.00;1.00;;;;;;5061138;28;20261;-85
2023/03/15 04:44:41;;;;;;;6.20;2.55;;;0.90;1.00;;;;;;5061148;28;20610;-85
2023/03/15 04:47:10;;;;;;;7.40;2.63;;;1.00;1.00;;;;;;5061043;28;20302;-85
2023/03/15 04:49:37;;;;;;;8.13;2.35;;;1.00;1.00;;;;;;5063984;28;20204;-85
2023/03/15 04:52:04;;;;;;;13.60;3.60;;;1.00;1.00;;;;;;5065118;28;20204;-86
2023/03/15 04:54:30;;;;;;;6.85;2.45;;;0.90;1.00;;;;;;5061931;28;20580;-85
2023/03/15 04:56:57;;;;;;;6.80;2.90;;;0.90;1.00;;;;;;5060849;28;20232;-86
2023/03/15 04:59:24;;;;;;;5.95;2.17;;;0.90;1.00;;;;;;5059973;28;20231;-85
2023/03/15 05:01:51;;;;;;;4.82;2.28;;;0.90;1.00;;;;;;5059621;28;20211;-86
2023/03/15 05:04:20;;;;;;;5.90;2.80;;;0.90;1.00;;;;;;5058974;28;20213;-85
2023/03/15 05:06:47;;;;;;;6.45;2.78;;;0.90;1.00;;;;;;5059051;28;20314;-85
2023/03/15 05:09:17;;;;;;;4.80;2.70;;;1.00;1.00;;;;;;5058891;28;20249;-86
2023/03/15 05:11:45;;;;;;;7.22;2.60;;;1.00;1.00;;;;;;5060711;28;20194;-85
2023/03/15 05:14:12;;;;;;;7.68;2.70;;;0.90;1.00;;;;;;5073148;28;20293;-85
2023/03/15 05:16:39;;;;;;;13.32;2.67;;;1.00;1.00;;;;;;5073105;28;20699;-85
2023/03/15 05:19:06;;;;;;;5.32;2.20;;;1.00;1.00;;;;;;5063071;28;20253;-85
2023/03/15 05:21:34;;;;;;;6.70;2.60;;;1.00;1.00;;;;;;5059004;28;20207;-85
2023/03/15 05:24:01;;;;;;;5.80;2.50;;;1.10;1.00;;;;;;5066315;28;20208;-83
2023/03/15 05:26:30;;;;;;;7.75;3.17;;;1.10;1.00;;;;;;5071593;28;20231;-85
2023/03/15 05:28:57;;;;;;;10.07;3.15;;;1.10;1.00;;;;;;5069973;28;20290;-86
2023/03/15 05:31:24;;;;;;;10.38;3.10;;;1.10;1.00;;;;;;5060706;28;20207;-86
2023/03/15 05:33:53;;;;;;;7.53;2.58;;;1.10;1.00;;;;;;5071578;28;20204;-83
2023/03/15 05:36:20;;;;;;;5.47;2.55;;;0.90;1.00;;;;;;5068878;28;20254;-84
2023/03/15 05:38:48;;;;;;;7.05;3.22;;;1.10;1.00;;;;;;5070739;28;20204;-83
2023/03/15 05:41:16;;;;;;;6.30;3.10;;;1.10;1.00;;;;;;5064956;28;20248;-82
2023/03/15 05:43:44;;;;;;;6.60;3.08;;;1.10;1.00;;;;;;5066431;28;20294;-84
2023/03/15 05:46:10;;;;;;;16.15;3.95;;;1.10;1.00;;;;;;5059308;28;20219;-84
2023/03/15 05:48:37;;;;;;;3.63;2.60;;;1.20;1.00;;;;;;5059780;28;20203;-86
2023/03/15 05:51:04;;;;;;;5.78;3.58;;;1.20;1.00;;;;;;5059655;28;20743;-86
2023/03/15 05:53:31;;;;;;;11.85;2.72;;;1.50;1.00;;;;;;5058704;28;20293;-85
2023/03/15 05:56:02;;;;;;;7.03;2.85;;;1.40;1.00;;;;;;5058133;28;20239;-86
2023/03/15 05:58:29;;;;;;;7.80;2.75;;;1.50;1.00;;;;;;5058016;28;20357;-86
2023/03/15 06:00:57;;;;;;;6.53;2.60;;;1.40;1.00;;;;;;5058415;28;20247;-85
2023/03/15 06:03:24;;;;;;;9.77;3.90;;;1.50;1.00;;;;;;5058294;28;20265;-86
2023/03/15 06:05:51;;;;;;;8.02;4.68;;;2.60;1.00;;;;;;5058362;28;20267;-85
2023/03/15 06:08:18;;;;;;;6.78;3.10;;;1.50;1.00;;;;;;5058534;28;20203;-86
2023/03/15 06:10:44;;;;;;;13.23;4.15;;;1.40;1.00;;;;;;5058043;28;20214;-86
2023/03/15 06:13:13;;;;;;;11.23;2.80;;;1.50;1.00;;;;;;5057651;28;20206;-85
2023/03/15 06:15:39;;;;;;;8.40;4.00;;;1.50;1.00;;;;;;5057910;28;20247;-85
2023/03/15 06:18:07;;;;;;;12.60;3.75;;;2.10;1.00;;;;;;5056576;28;20448;-87
2023/03/15 06:20:33;;;;;;;4.25;2.47;;;1.90;1.00;;;;;;5058315;28;20199;-85
2023/03/15 06:23:00;;;;;;;10.07;2.97;;;1.90;99.90;;;;;;5057668;28;20294;-85
2023/03/15 06:25:27;;;;;;;7.32;3.78;;;2.00;99.90;;;;;;5058645;28;20532;-87
2023/03/15 06:27:54;;;;;;;5.18;2.40;;;1.90;99.90;;;;;;5059783;28;20199;-85
2023/03/15 06:30:23;;;;;;;8.52;2.63;;;1.80;99.90;;;;;;5076525;28;20207;-85
2023/03/15 06:32:49;;;;;;;8.68;3.03;;;2.00;1.00;;;;;;5076718;28;20195;-86
2023/03/15 06:35:16;;;;;;;6.45;3.08;;;2.10;99.90;;;;;;5060067;28;20203;-85
2023/03/15 06:37:43;;;;;;;4.88;2.88;;;1.90;99.90;;;;;;5058392;28;20701;-86
2023/03/15 06:40:11;;;;;;;4.95;2.38;;;2.00;99.90;;;;;;5057511;28;20290;-85
2023/03/15 06:42:40;;;;;;;8.35;4.38;;;2.00;1.00;;;;;;5058331;28;20210;-84
2023/03/15 06:45:08;;;;;;;7.57;2.70;;;2.00;1.00;;;;;;5058190;28;20658;-85
2023/03/15 06:47:37;;;;;;;5.90;3.05;;;1.90;1.00;;;;;;5059154;28;20226;-85
2023/03/15 06:50:04;;;;;;;5.28;2.90;;;1.90;1.00;;;;;;5072166;28;20214;-84
2023/03/15 06:52:31;;;;;;;8.73;3.20;;;2.00;1.00;;;;;;5072671;28;20203;-84
2023/03/15 06:54:58;;;;;;;9.80;2.50;;;2.00;1.00;;;;;;5067853;28;20231;-87
2023/03/15 06:57:25;;;;;;;12.80;3.45;;;2.10;1.00;;;;;;5073787;22;20223;-80
2023/03/15 06:59:52;;;;;;;8.48;4.25;;;2.10;1.00;;;;;;5058134;28;20204;-79
2023/03/15 07:02:20;;;;;;;7.35;2.83;;;2.10;1.00;;;;;;5056766;28;20203;-79
2023/03/15 07:04:48;;;;;;;9.68;3.65;;;2.20;1.00;;;;;;5056414;28;20670;-79
2023/03/15 07:07:16;;;;;;;11.00;3.50;;;2.30;1.00;;;;;;5055337;28;20216;-79
2023/03/15 07:09:43;;;;;;;8.82;3.58;;;2.40;1.00;;;;;;5053859;28;20214;-78
2023/03/15 07:12:10;;;;;;;7.82;3.40;;;2.40;1.00;;;;;;5055348;28;20210;-79
2023/03/15 07:14:37;;;;;;;26.13;7.95;;;2.50;1.00;;;;;;5055361;28;20211;-79
2023/03/15 07:17:04;;;;;;;37.33;14.77;;;2.60;1.00;;;;;;5056430;28;20223;-78
2023/03/15 07:19:31;;;;;;;18.67;7.20;;;2.60;1.00;;;;;;5056879;28;20214;-78
2023/03/15 07:21:59;;;;;;;58.60;27.33;;;2.80;1.00;;;;;;5054876;28;20203;-78
2023/03/15 07:24:27;;;;;;;16.85;9.10;;;2.80;99.90;;;;;;5054415;28;20264;-78
2023/03/15 07:26:55;;;;;;;23.73;8.93;;;2.90;99.90;;;;;;5054132;28;20230;-78
2023/03/15 07:29:22;;;;;;;17.88;6.35;;;2.90;1.00;;;;;;5054547;28;20608;-78
2023/03/15 07:31:49;;;;;;;8.20;3.83;;;2.80;99.90;;;;;;5055023;28;20200;-78
2023/03/15 07:34:16;;;;;;;21.33;5.65;;;3.10;1.00;;;;;;5057927;28;20214;-78
2023/03/15 07:36:42;;;;;;;10.90;4.32;;;2.80;99.90;;;;;;5056516;28;20223;-78
2023/03/15 07:39:11;;;;;;;9.88;3.30;;;3.00;1.00;;;;;;5059788;28;20239;-80
2023/03/15 07:41:38;;;;;;;8.73;3.55;;;3.00;99.90;;;;;;5058245;28;20642;-80
2023/03/15 07:44:05;;;;;;;23.20;13.90;;;3.00;99.90;;;;;;5061206;28;20285;-80
2023/03/15 07:46:33;;;;;;;15.85;7.70;;;3.00;99.90;;;;;;5063311;28;20311;-80
2023/03/15 07:49:00;;;;;;;9.02;4.90;;;3.10;99.90;;;;;;5064881;28;20203;-80
2023/03/15 07:51:26;;;;;;;30.23;4.30;;;3.20;99.90;;;;;;5067697;28;20219;-80
2023/03/15 07:53:54;;;;;;;17.00;4.78;;;3.00;99.90;;;;;;5066911;28;20207;-80
2023/03/15 07:56:24;;;;;;;13.82;3.85;;;3.20;93.60;;;;;;5066302;28;20317;-80
2023/03/15 07:58:51;;;;;;;9.55;3.20;;;3.30;50.50;;;;;;5063878;28;20239;-80
2023/03/15 08:01:17;;;;;;;14.48;5.13;;;3.50;89.10;;;;;;5060007;28;20291;-81
2023/03/15 08:03:44;;;;;;;6.22;3.15;;;3.60;1.00;;;;;;5062107;28;20242;-80
2023/03/15 08:06:11;;;;;;;14.43;3.83;;;3.40;1.00;;;;;;5065025;28;20220;-81
2023/03/15 08:08:38;;;;;;;12.75;3.65;;;3.20;1.00;;;;;;5064016;28;20196;-82
2023/03/15 08:11:06;;;;;;;30.25;4.70;;;3.70;99.90;;;;;;5062846;28;20196;-81
2023/03/15 08:13:34;;;;;;;27.55;5.00;;;3.70;96.50;;;;;;5060694;28;20207;-81
2023/03/15 08:16:01;;;;;;;16.50;4.28;;;3.70;1.00;;;;;;5063264;28;20643;-81
2023/03/15 08:18:28;;;;;;;5.22;2.60;;;3.80;1.00;;;;;;5075946;28;20247;-81
2023/03/15 08:20:55;;;;;;;6.25;3.70;;;4.00;1.00;;;;;;5079029;28;20208;-81
2023/03/15 08:23:22;;;;;;;9.00;3.92;;;4.60;99.90;;;;;;5062564;28;20208;-81
2023/03/15 08:25:49;;;;;;;8.43;3.70;;;4.20;99.90;;;;;;5062813;28;20205;-80
2023/03/15 08:28:17;;;;;;;5.15;3.30;;;4.20;99.90;;;;;;5062587;28;20199;-81
2023/03/15 08:30:45;;;;;;;12.02;3.40;;;4.00;1.00;;;;;;5067815;28;20207;-81
2023/03/15 08:33:12;;;;;;;7.57;4.55;;;4.20;99.90;;;;;;5071180;28;20208;-81
2023/03/15 08:35:40;;;;;;;5.78;2.38;;;4.40;1.00;;;;;;5074239;28;20563;-81
2023/03/15 08:38:08;;;;;;;8.25;3.50;;;4.40;1.00;;;;;;5063692;28;20233;-81
2023/03/15 08:40:35;;;;;;;5.85;2.78;;;4.20;1.00;;;;;;5061946;28;20258;-81
2023/03/15 08:43:03;;;;;;;5.70;3.10;;;;;;;;;;5061343;28;20226;-82
2023/03/15 08:45:30;;;;;;;11.85;3.13;;;4.20;99.90;;;;;;5061409;28;20239;-82
2023/03/15 08:47:59;;;;;;;6.38;3.67;;;4.20;99.90;;;;;;5061778;28;20203;-82
2023/03/15 08:50:27;;;;;;;7.90;3.13;;;4.10;1.00;;;;;;5061715;28;20614;-81
2023/03/15 08:52:54;;;;;;;5.68;4.00;;;4.10;28.80;;;;;;5061540;28;20200;-81
2023/03/15 08:55:21;;;;;;;7.57;4.90;;;4.20;1.00;;;;;;5062257;28;20191;-81
2023/03/15 08:57:48;;;;;;;6.60;3.25;;;4.40;99.90;;;;;;5061091;28;20235;-80
2023/03/15 09:00:19;;;;;;;10.10;5.38;;;4.40;1.00;;;;;;5061962;28;20212;-81
2023/03/15 09:02:47;;;;;;;5.75;3.80;;;4.20;1.00;;;;;;5061593;28;20216;-81
2023/03/15 09:05:16;;;;;;;6.47;4.13;;;4.20;99.90;;;;;;5061330;28;20206;-81
2023/03/15 09:07:43;;;;;;;9.30;4.75;;;4.30;1.00;;;;;;5064959;28;20223;-81
2023/03/15 09:10:13;;;;;;;7.15;4.53;;;4.30;1.00;;;;;;5063445;28;20639;-81
2023/03/15 09:12:40;;;;;;;6.18;4.05;;;4.30;1.00;;;;;;5064505;28;20200;-81
2023/03/15 09:15:08;;;;;;;10.00;3.97;;;4.20;1.00;;;;;;5065072;28;20208;-81
2023/03/15 09:17:36;;;;;;;7.43;4.10;;;4.40;99.90;;;;;;5066637;28;20589;-81
2023/03/15 09:20:07;;;;;;;7.03;4.07;;;4.50;1.00;;;;;;5065385;28;20279;-81
2023/03/15 09:22:35;;;;;;;9.52;3.88;;;4.50;99.90;;;;;;5062766;28;20197;-81
2023/03/15 09:25:03;;;;;;;6.25;3.92;;;4.60;1.00;;;;;;5063994;28;20238;-80
2023/03/15 09:27:30;;;;;;;7.47;3.45;;;4.70;99.90;;;;;;5063719;28;20686;-80
2023/03/15 09:29:57;;;;;;;7.25;4.13;;;4.60;99.90;;;;;;5070735;28;20195;-80
2023/03/15 09:32:24;;;;;;;9.07;4.25;;;4.80;99.90;;;;;;5076946;28;20204;-80
2023/03/15 09:34:51;;;;;;;6.90;4.85;;;4.70;99.90;;;;;;5075189;28;20227;-81
2023/03/15 09:37:19;;;;;;;6.88;3.90;;;4.70;99.90;;;;;;5072055;28;20224;-80
2023/03/15 09:39:47;;;;;;;10.25;4.25;;;4.90;99.90;;;;;;5071553;28;20205;-80
2023/03/15 09:42:23;;;;;;;6.07;3.88;;;4.70;93.80;;;;;;5067173;28;20207;-80
2023/03/15 09:44:57;;;;;;;12.60;4.78;;;4.80;99.90;;;;;;5062186;28;20251;-81
2023/03/15 09:47:39;;;;;;;5.22;3.78;;;4.80;99.90;;;;;;5061309;28;20232;-80
2023/03/15 09:50:14;;;;;;;11.05;5.00;;;4.60;99.90;;;;;;5060994;28;20184;-80
2023/03/15 09:52:44;;;;;;;7.30;3.65;;;4.70;1.00;;;;;;5061278;28;20200;-82
2023/03/15 09:55:16;;;;;;;8.23;3.80;;;4.40;99.90;;;;;;5060155;28;20290;-81
2023/03/15 09:57:47;;;;;;;11.70;4.40;;;4.40;99.90;;;;;;5060357;28;20242;-80
2023/03/15 10:00:19;;;;;;;9.02;3.50;;;4.30;99.90;;;;;;5064209;28;20188;-80
2023/03/15 10:02:55;;;;;;;6.72;3.50;;;4.30;1.00;;;;;;5063408;28;20315;-81
2023/03/15 10:05:28;;;;;;;8.60;4.40;;;4.70;99.90;;;;;;5061510;28;20195;-81
2023/03/15 10:07:55;;;;;;;4.53;3.47;;;4.80;99.90;;;;;;5060293;28;20566;-80
2023/03/15 10:10:31;;;;;;;3.22;2.75;;;5.20;99.90;;;;;;5060718;28;20212;-80
2023/03/15 10:13:09;;;;;;;5.68;4.68;;;4.80;99.90;;;;;;5057285;28;20188;-78
2023/03/15 10:15:41;;;;;;;6.50;3.13;;;4.80;99.90;;;;;;5055562;28;20187;-79
2023/03/15 10:18:26;;;;;;;6.45;3.50;;;4.90;2.80;;;;;;5066286;28;20200;-79
2023/03/15 10:20:59;;;;;;;7.43;3.08;;;5.00;50.70;;;;;;5079340;28;20177;-78
2023/03/15 10:23:38;;;;;;;4.30;2.60;;;5.10;1.00;;;;;;5079032;28;20236;-78
2023/03/15 10:26:11;;;;;;;3.03;2.60;;;5.30;99.90;;;;;;5056657;28;20228;-79
2023/03/15 10:28:38;;;;;;;4.30;2.75;;;5.30;1.00;;;;;;5061176;28;20266;-79
2023/03/15 10:31:13;;;;;;;2.10;2.00;;;5.60;4.40;;;;;;5058585;28;20300;-80
2023/03/15 10:33:41;;;;;;;4.75;3.17;;;5.30;99.90;;;;;;5055256;28;20192;-79
2023/03/15 10:36:16;;;;;;;3.40;2.63;;;5.50;1.00;;;;;;5053654;28;20220;-79
2023/03/15 10:38:43;;;;;;;8.75;3.45;;;5.50;1.00;;;;;;5055190;28;20212;-80
2023/03/15 10:41:14;;;;;;;9.10;3.65;;;5.20;1.00;;;;;;5056270;28;20638;-79
2023/03/15 10:43:41;;;;;;;4.53;2.95;;;5.20;99.90;;;;;;5057330;28;20190;-80
2023/03/15 10:46:10;;;;;;;5.90;2.85;;;5.10;99.90;;;;;;5059433;28;20220;-79
2023/03/15 10:48:39;;;;;;;3.35;2.80;;;5.10;1.00;;;;;;5058186;28;20203;-81
2023/03/15 10:51:08;;;;;;;15.55;4.68;;;5.20;1.00;;;;;;5058907;28;20204;-80
2023/03/15 10:53:36;;;;;;;11.27;3.47;;;5.30;15.60;;;;;;5058967;28;20231;-79
2023/03/15 10:56:07;;;;;;;5.38;2.70;;;5.10;99.90;;;;;;5064667;28;20232;-79
2023/03/15 10:58:42;;;;;;;5.68;2.55;;;5.20;1.00;;;;;;5071347;28;20219;-78
2023/03/15 11:01:22;;;;;;;4.43;2.83;;;5.50;1.00;;;;;;5058375;28;20219;-80
2023/03/15 11:04:01;;;;;;;4.65;2.70;;;6.30;77.70;;;;;;5058213;28;20643;-79
2023/03/15 11:06:28;;;;;;;4.15;2.33;;;6.20;1.00;;;;;;5057463;28;20725;-80
2023/03/15 11:09:09;;;;;;;4.93;2.38;;;6.30;1.00;;;;;;5059179;28;20207;-80
2023/03/15 11:11:50;;;;;;;5.78;3.30;;;6.20;1.00;;;;;;5058481;28;20560;-80
2023/03/15 11:14:19;;;;;;;5.20;3.10;;;6.20;1.00;;;;;;5057814;28;20198;-79
2023/03/15 11:16:49;;;;;;;2.90;2.70;;;5.90;1.00;;;;;;5056863;28;20752;-80
2023/03/15 11:19:20;;;;;;;4.90;2.80;;;6.20;1.00;;;;;;5056654;28;20207;-80
2023/03/15 11:21:49;;;;;;;2.72;2.22;;;6.30;99.90;;;;;;5056627;28;20284;-79
2023/03/15 11:24:24;;;;;;;3.45;2.50;;;6.10;1.00;;;;;;5059359;28;20200;-79
2023/03/15 11:26:54;;;;;;;3.83;2.10;;;6.10;1.00;;;;;;5061335;28;20226;-78
2023/03/15 11:29:25;;;;;;;9.75;2.97;;;5.80;1.00;;;;;;5062547;28;20266;-78
2023/03/15 11:31:53;;;;;;;6.15;2.45;;;5.80;1.00;;;;;;5073033;28;20176;-80
2023/03/15 11:34:27;;;;;;;6.85;3.40;;;5.80;1.00;;;;;;5069636;28;20203;-79
2023/03/15 11:37:01;;;;;;;9.85;3.05;;;5.70;1.00;;;;;;5059532;28;20314;-79
2023/03/15 11:39:36;;;;;;;3.80;2.47;;;5.60;1.00;;;;;;5058175;28;20216;-79
2023/03/15 11:42:08;;;;;;;8.10;3.63;;;5.30;1.00;;;;;;5065726;28;20191;-79
2023/03/15 11:44:40;;;;;;;3.83;2.90;;;5.10;1.00;;;;;;5062702;28;20194;-79
2023/03/15 11:47:14;;;;;;;2.90;2.00;;;5.20;1.00;;;;;;5058417;28;20639;-79
2023/03/15 11:49:49;;;;;;;11.07;3.15;;;5.50;1.00;;;;;;5061918;28;20260;-79
2023/03/15 11:52:17;;;;;;;9.40;2.53;;;5.60;1.00;;;;;;5062192;28;20267;-79
2023/03/15 11:54:49;;;;;;;6.07;2.70;;;5.80;1.00;;;;;;5060960;28;20208;-79
2023/03/15 11:57:42;;;;;;;5.55;2.92;;;5.90;1.00;;;;;;5061622;28;20559;-79
2023/03/15 12:00:25;;;;;;;3.50;2.40;;;5.60;1.00;;;;;;5061174;28;20271;-80
2023/03/15 12:03:00;;;;;;;2.88;2.13;;;5.90;1.00;;;;;;5059897;28;20199;-80
2023/03/15 12:05:52;;;;;;;3.17;2.40;;;6.50;33.20;;;;;;5059396;28;20198;-80
2023/03/15 12:08:26;;;;;;;2.65;2.45;;;6.10;1.00;;;;;;5059701;28;20196;-79
2023/03/15 12:10:56;;;;;;;2.35;1.92;;;6.60;1.00;;;;;;5060251;28;20217;-80
2023/03/15 12:13:26;;;;;;;4.53;3.05;;;6.40;1.00;;;;;;5060502;28;20723;-79
2023/03/15 12:15:55;;;;;;;4.25;2.75;;;6.30;1.00;;;;;;5059645;28;20283;-80
2023/03/15 12:18:33;;;;;;;2.00;1.77;;;6.80;1.00;;;;;;5058703;28;20220;-79
2023/03/15 12:21:33;;;;;;;3.30;2.58;;;6.70;1.00;;;;;;5058804;28;20236;-79
2023/03/15 12:24:07;;;;;;;4.53;2.65;;;6.70;1.00;;;;;;5047335;28;20239;-79
2023/03/15 12:26:45;;;;;;;3.38;2.30;;;6.70;1.00;;;;;;5059336;28;20328;-80
2023/03/15 12:29:22;;;;;;;3.42;1.88;;;6.80;1.00;;;;;;5059174;28;20184;-79
2023/03/15 12:31:58;;;;;;;4.32;2.20;;;6.40;1.00;;;;;;5059342;28;20246;-79
2023/03/15 12:34:35;;;;;;;3.85;2.10;;;6.10;1.00;;;;;;5058862;28;20634;-79
2023/03/15 12:37:07;;;;;;;4.10;2.47;;;6.10;1.00;;;;;;5056523;28;20759;-78
2023/03/15 12:39:40;;;;;;;3.55;2.05;;;6.10;1.00;;;;;;5056827;28;20223;-78
2023/03/15 12:42:12;;;;;;;4.13;1.90;;;6.10;1.00;;;;;;5058143;28;20209;-79
2023/03/15 12:44:41;;;;;;;7.10;2.47;;;6.10;1.00;;;;;;5057329;28;20192;-79
2023/03/15 12:47:11;;;;;;;2.55;2.35;;;6.20;1.00;;;;;;5059679;28;20278;-80
2023/03/15 12:49:41;;;;;;;6.88;2.28;;;6.60;1.00;;;;;;5059541;28;20667;-80
2023/03/15 12:52:38;;;;;;;5.60;2.78;;;6.90;1.00;;;;;;5058311;28;20282;-78
2023/03/15 12:55:14;;;;;;;7.88;2.38;;;6.60;1.00;;;;;;5066130;28;20629;-79
2023/03/15 12:57:48;;;;;;;4.50;2.92;;;6.70;1.00;;;;;;5077830;22;20295;-83
2023/03/15 13:00:19;;;;;;;3.65;2.53;;;6.60;1.00;;;;;;5060081;28;20216;-83
2023/03/15 13:02:51;;;;;;;2.85;1.60;;;6.50;1.00;;;;;;5062962;28;20660;-84
2023/03/15 13:05:33;;;;;;;3.70;2.58;;;6.40;1.00;;;;;;5061099;28;20195;-83
2023/03/15 13:08:23;;;;;;;5.07;2.55;;;6.50;1.00;;;;;;5060498;28;20237;-83
2023/03/15 13:11:15;;;;;;;2.88;1.95;;;6.50;1.00;;;;;;5060369;28;20184;-83
2023/03/15 13:13:58;;;;;;;3.38;2.58;;;6.30;1.00;;;;;;5059859;28;20189;-82